createdAt,value
2018-02-08T00:01:44.276Z,100613.94
2018-02-08T00:04:11.781Z,100612.14
2018-02-08T00:06:39.253Z,100612.09
2018-02-08T00:09:06.696Z,100620.14
2018-02-08T00:11:34.170Z,100617.87
2018-02-08T00:14:01.641Z,100611.48
2018-02-08T00:16:29.125Z,100615.76
2018-02-08T00:18:56.595Z,100613.39
2018-02-08T00:21:24.053Z,100612.64
2018-02-08T00:23:51.554Z,100615.64
2018-02-08T00:26:19.001Z,100621.47
2018-02-08T00:28:46.469Z,100624.72
2018-02-08T00:31:13.932Z,100621.03
2018-02-08T00:33:41.382Z,100623.00
2018-02-08T00:36:09.041Z,100622.74
2018-02-08T00:38:36.584Z,100623.29
2018-02-08T00:41:04.068Z,100618.61
2018-02-08T00:43:31.537Z,100623.02
2018-02-08T00:45:58.985Z,100626.00
2018-02-08T00:48:26.456Z,100623.99
2018-02-08T00:50:53.904Z,100626.50
2018-02-08T00:53:21.348Z,100624.75
2018-02-08T00:55:48.897Z,100626.73
2018-02-08T00:58:16.345Z,100631.29
2018-02-08T01:00:44.009Z,100633.73
2018-02-08T01:03:11.457Z,100631.69
2018-02-08T01:05:38.948Z,100637.65
2018-02-08T01:08:06.412Z,100631.91
2018-02-08T01:10:33.859Z,100633.00
2018-02-08T01:13:01.503Z,100629.91
2018-02-08T01:15:28.948Z,100628.62
2018-02-08T01:17:56.416Z,100632.14
2018-02-08T01:20:23.892Z,100633.77
2018-02-08T01:22:51.333Z,100638.42
2018-02-08T01:25:18.990Z,100635.80
2018-02-08T01:27:46.437Z,100640.03
2018-02-08T01:30:13.914Z,100643.36
2018-02-08T01:32:41.516Z,100641.77
2018-02-08T01:35:08.972Z,100639.01
2018-02-08T01:37:36.581Z,100640.23
2018-02-08T01:40:04.037Z,100637.78
2018-02-08T01:42:31.486Z,100635.52
2018-02-08T01:44:58.953Z,100639.09
2018-02-08T01:47:26.632Z,100641.33
2018-02-08T01:49:54.485Z,100640.80
2018-02-08T01:52:21.940Z,100635.20
2018-02-08T01:54:49.385Z,100637.84
2018-02-08T01:57:16.857Z,100635.96
2018-02-08T01:59:44.312Z,100637.91
2018-02-08T02:02:11.965Z,100632.89
2018-02-08T02:04:39.417Z,100634.28
2018-02-08T02:07:06.881Z,100631.94
2018-02-08T02:09:34.348Z,100631.38
2018-02-08T02:12:01.859Z,100630.14
2018-02-08T02:14:29.340Z,100631.66
2018-02-08T02:16:56.804Z,100625.02
2018-02-08T02:19:24.254Z,100623.92
2018-02-08T02:21:51.784Z,100630.68
2018-02-08T02:24:19.233Z,100621.50
2018-02-08T02:26:46.938Z,100618.56
2018-02-08T02:29:14.396Z,100628.55
2018-02-08T02:31:41.942Z,100633.56
2018-02-08T02:34:09.424Z,100625.84
2018-02-08T02:36:36.920Z,100634.94
2018-02-08T02:39:04.396Z,100630.38
2018-02-08T02:41:31.841Z,100626.55
2018-02-08T02:43:59.677Z,100628.42
2018-02-08T02:46:27.173Z,100625.89
2018-02-08T02:48:54.622Z,100632.53
2018-02-08T02:51:22.222Z,100633.09
2018-02-08T02:53:49.719Z,100639.80
2018-02-08T02:56:17.161Z,100636.05
2018-02-08T02:58:44.662Z,100642.16
2018-02-08T03:01:12.113Z,100640.31
2018-02-08T03:03:39.589Z,100643.12
2018-02-08T03:06:07.065Z,100640.53
2018-02-08T03:08:34.544Z,100642.06
2018-02-08T03:11:02.005Z,100643.02
2018-02-08T03:13:29.484Z,100641.38
2018-02-08T03:15:57.104Z,100635.07
2018-02-08T03:18:24.550Z,100639.84
2018-02-08T03:20:52.006Z,100639.08
2018-02-08T03:23:19.481Z,100636.20
2018-02-08T03:25:46.929Z,100637.63
2018-02-08T03:28:14.410Z,100644.09
2018-02-08T03:30:43.389Z,100637.19
2018-02-08T03:33:10.846Z,100639.59
2018-02-08T03:35:38.314Z,100636.19
2018-02-08T03:38:05.756Z,100640.92
2018-02-08T03:40:33.240Z,100634.22
2018-02-08T03:43:00.697Z,100637.48
2018-02-08T03:45:28.161Z,100637.52
2018-02-08T03:47:55.624Z,100644.59
2018-02-08T03:50:23.098Z,100648.23
2018-02-08T03:52:50.580Z,100644.90
2018-02-08T03:55:18.035Z,100648.44
2018-02-08T03:57:45.492Z,100650.11
2018-02-08T04:00:12.972Z,100649.43
2018-02-08T04:02:40.434Z,100655.06
2018-02-08T04:05:08.167Z,100654.93
2018-02-08T04:07:35.609Z,100653.75
2018-02-08T04:10:03.061Z,100663.43
2018-02-08T04:12:30.542Z,100672.94
2018-02-08T04:14:57.993Z,100669.77
2018-02-08T04:17:25.752Z,100675.84
2018-02-08T04:19:53.200Z,100678.50
2018-02-08T04:22:20.657Z,100677.92
2018-02-08T04:24:48.126Z,100672.60
2018-02-08T04:27:15.608Z,100682.92
2018-02-08T04:29:43.262Z,100679.02
2018-02-08T04:32:10.712Z,100680.61
2018-02-08T04:34:38.212Z,100690.16
2018-02-08T04:37:05.678Z,100687.59
2018-02-08T04:39:44.915Z,100694.34
2018-02-08T04:42:24.197Z,100702.18
2018-02-08T04:45:03.498Z,100701.52
2018-02-08T04:50:31.858Z,100708.21
2018-02-08T04:52:59.576Z,100702.27
2018-02-08T04:55:27.045Z,100706.45
2018-02-08T04:57:54.504Z,100709.20
2018-02-08T05:00:22.009Z,100705.52
2018-02-08T05:02:53.041Z,100707.23
2018-02-08T05:05:20.541Z,100709.48
2018-02-08T05:07:47.988Z,100717.14
2018-02-08T05:10:15.441Z,100717.39
2018-02-08T05:12:42.916Z,100722.11
2018-02-08T05:15:10.401Z,100723.16
2018-02-08T05:17:38.137Z,100725.06
2018-02-08T05:20:05.593Z,100733.90
2018-02-08T05:22:33.046Z,100725.14
2018-02-08T05:25:00.513Z,100730.04
2018-02-08T05:27:27.961Z,100727.50
2018-02-08T05:29:55.435Z,100727.61
2018-02-08T05:32:22.881Z,100721.79
2018-02-08T05:34:50.324Z,100729.53
2018-02-08T05:37:17.805Z,100737.64
2018-02-08T05:39:45.265Z,100732.48
2018-02-08T05:42:12.750Z,100734.84
2018-02-08T05:44:40.206Z,100736.03
2018-02-08T05:47:07.653Z,100737.65
2018-02-08T05:49:35.141Z,100731.16
2018-02-08T05:52:02.590Z,100735.38
2018-02-08T05:54:30.200Z,100743.72
2018-02-08T05:56:57.681Z,100739.91
2018-02-08T05:59:25.134Z,100747.27
2018-02-08T06:01:52.812Z,100742.40
2018-02-08T06:04:20.275Z,100754.86
2018-02-08T06:06:47.761Z,100749.43
2018-02-08T06:09:15.209Z,100754.77
2018-02-08T06:11:42.661Z,100758.46
2018-02-08T06:14:10.132Z,100754.28
2018-02-08T06:16:37.584Z,100756.94
2018-02-08T06:19:05.063Z,100760.14
2018-02-08T06:21:32.517Z,100758.87
2018-02-08T06:23:59.970Z,100761.60
2018-02-08T06:26:27.440Z,100764.31
2018-02-08T06:28:54.935Z,100759.05
2018-02-08T06:31:22.452Z,100769.83
2018-02-08T06:33:49.900Z,100773.59
2018-02-08T06:36:17.380Z,100773.42
2018-02-08T06:38:44.854Z,100776.07
2018-02-08T06:41:12.319Z,100780.94
2018-02-08T06:43:40.133Z,100782.84
2018-02-08T06:46:07.609Z,100789.55
2018-02-08T06:48:35.084Z,100788.38
2018-02-08T06:51:02.556Z,100794.75
2018-02-08T06:53:30.012Z,100801.52
2018-02-08T06:55:58.049Z,100804.36
2018-02-08T06:58:25.876Z,100812.77
2018-02-08T07:00:53.673Z,100811.07
2018-02-08T07:03:21.225Z,100815.95
2018-02-08T07:05:50.324Z,100811.98
2018-02-08T07:08:19.700Z,100812.85
2018-02-08T07:10:49.798Z,100813.27
2018-02-08T07:13:18.856Z,100818.41
2018-02-08T07:15:47.579Z,100817.95
2018-02-08T07:18:15.080Z,100824.03
2018-02-08T07:20:42.552Z,100817.70
2018-02-08T07:23:10.001Z,100829.23
2018-02-08T07:25:37.487Z,100827.05
2018-02-08T07:28:04.933Z,100832.48
2018-02-08T07:30:32.428Z,100839.80
2018-02-08T07:32:59.894Z,100834.33
2018-02-08T07:35:27.342Z,100835.80
2018-02-08T07:37:54.883Z,100833.28
2018-02-08T07:40:22.337Z,100834.60
2018-02-08T07:42:49.793Z,100839.45
2018-02-08T07:45:17.278Z,100837.47
2018-02-08T07:47:44.728Z,100843.30
2018-02-08T07:50:12.425Z,100847.42
2018-02-08T07:52:39.885Z,100845.98
2018-02-08T07:55:07.337Z,100850.27
2018-02-08T07:57:34.804Z,100853.59
2018-02-08T08:00:02.253Z,100855.06
2018-02-08T08:02:30.061Z,100852.73
2018-02-08T08:04:57.513Z,100853.44
2018-02-08T08:07:24.980Z,100857.56
2018-02-08T08:09:52.453Z,100857.92
2018-02-08T08:12:19.925Z,100855.80
2018-02-08T08:14:47.637Z,100850.46
2018-02-08T08:17:15.141Z,100853.39
2018-02-08T08:19:42.610Z,100852.56
2018-02-08T08:22:10.093Z,100854.13
2018-02-08T08:24:37.549Z,100864.25
2018-02-08T08:27:05.024Z,100851.95
2018-02-08T08:29:32.483Z,100850.75
2018-02-08T08:31:59.933Z,100844.61
2018-02-08T08:34:27.409Z,100849.37
2018-02-08T08:36:54.864Z,100848.06
2018-02-08T08:39:22.565Z,100856.48
2018-02-08T08:41:50.017Z,100854.38
2018-02-08T08:44:17.526Z,100858.88
2018-02-08T08:46:45.002Z,100867.86
2018-02-08T08:49:12.457Z,100867.23
2018-02-08T08:51:39.932Z,100872.91
2018-02-08T08:54:07.464Z,100877.09
2018-02-08T08:56:34.935Z,100875.30
2018-02-08T08:59:02.401Z,100874.14
2018-02-08T09:01:29.849Z,100873.45
2018-02-08T09:03:57.576Z,100878.78
2018-02-08T09:06:25.025Z,100884.63
2018-02-08T09:08:52.475Z,100885.06
2018-02-08T09:11:19.970Z,100891.03
2018-02-08T09:13:47.884Z,100895.77
2018-02-08T09:16:15.353Z,100889.02
2018-02-08T09:18:42.825Z,100888.22
2018-02-08T09:21:10.273Z,100885.66
2018-02-08T09:23:37.760Z,100893.88
2018-02-08T09:26:05.210Z,100887.16
2018-02-08T09:28:32.830Z,100882.63
2018-02-08T09:31:00.287Z,100884.11
2018-02-08T09:33:27.738Z,100879.99
2018-02-08T09:35:55.204Z,100887.91
2018-02-08T09:38:22.651Z,100878.45
2018-02-08T09:40:50.365Z,100887.98
2018-02-08T09:43:17.830Z,100887.37
2018-02-08T09:45:45.329Z,100890.03
2018-02-08T09:48:12.793Z,100889.64
2018-02-08T09:50:40.241Z,100892.50
2018-02-08T09:53:07.750Z,100892.97
2018-02-08T09:55:35.215Z,100894.67
2018-02-08T09:58:02.682Z,100898.42
2018-02-08T10:00:30.156Z,100895.28
2018-02-08T10:02:57.601Z,100892.89
2018-02-08T10:05:25.101Z,100895.29
2018-02-08T10:07:52.549Z,100896.48
2018-02-08T10:10:19.997Z,100896.26
2018-02-08T10:12:47.504Z,100899.68
2018-02-08T10:15:14.969Z,100901.13
2018-02-08T10:17:42.600Z,100904.91
2018-02-08T10:20:10.060Z,100906.74
2018-02-08T10:22:37.876Z,100913.36
2018-02-08T10:25:05.361Z,100911.04
2018-02-08T10:27:32.804Z,100912.99
2018-02-08T10:30:00.472Z,100913.36
2018-02-08T10:32:28.108Z,100905.47
2018-02-08T10:34:55.730Z,100905.53
2018-02-08T10:37:23.211Z,100900.81
2018-02-08T10:39:50.677Z,100901.31
2018-02-08T10:42:18.476Z,100901.08
2018-02-08T10:44:45.929Z,100901.41
2018-02-08T10:47:13.392Z,100900.33
2018-02-08T10:49:40.860Z,100900.45
2018-02-08T10:52:08.305Z,100898.03
2018-02-08T10:54:35.957Z,100896.81
2018-02-08T10:57:03.414Z,100902.72
2018-02-08T10:59:30.869Z,100899.14
2018-02-08T11:01:58.336Z,100897.09
2018-02-08T11:04:25.784Z,100896.54
2018-02-08T11:06:53.272Z,100892.70
2018-02-08T11:09:20.728Z,100891.61
2018-02-08T11:11:48.199Z,100890.05
2018-02-08T11:14:15.669Z,100891.36
2018-02-08T11:16:43.130Z,100876.25
2018-02-08T11:19:10.927Z,100881.41
2018-02-08T11:21:38.372Z,100872.23
2018-02-08T11:24:05.820Z,100868.70
2018-02-08T11:26:33.300Z,100867.55
2018-02-08T11:29:00.757Z,100871.36
2018-02-08T11:31:28.231Z,100873.28
2018-02-08T11:33:55.689Z,100868.12
2018-02-08T11:36:23.133Z,100867.25
2018-02-08T11:38:50.625Z,100872.59
2018-02-08T11:41:18.097Z,100877.81
2018-02-08T11:43:45.799Z,100869.75
2018-02-08T11:46:13.244Z,100869.46
2018-02-08T11:48:40.690Z,100868.78
2018-02-08T11:51:08.165Z,100868.31
2018-02-08T11:53:35.613Z,100867.31
2018-02-08T11:56:03.286Z,100860.59
2018-02-08T11:58:30.738Z,100867.77
2018-02-08T12:00:58.184Z,100863.22
2018-02-08T12:03:25.657Z,100864.90
2018-02-08T12:05:53.107Z,100858.38
2018-02-08T12:08:20.770Z,100860.56
2018-02-08T12:10:48.292Z,100855.79
2018-02-08T12:13:15.789Z,100863.89
2018-02-08T12:15:43.256Z,100857.30
2018-02-08T12:18:10.705Z,100855.42
2018-02-08T12:20:38.409Z,100852.93
2018-02-08T12:23:05.819Z,100854.16
2018-02-08T12:25:33.281Z,100849.89
2018-02-08T12:28:01.709Z,100844.55
2018-02-08T12:30:29.164Z,100844.84
2018-02-08T12:32:56.777Z,100829.48
2018-02-08T12:35:24.243Z,100836.77
2018-02-08T12:37:51.705Z,100829.03
2018-02-08T12:40:19.194Z,100827.78
2018-02-08T12:42:46.640Z,100825.14
2018-02-08T12:45:14.237Z,100825.03
2018-02-08T12:47:41.684Z,100817.48
2018-02-08T12:50:09.136Z,100813.67
2018-02-08T12:52:36.688Z,100811.58
2018-02-08T12:55:04.137Z,100811.94
2018-02-08T12:57:31.992Z,100807.11
2018-02-08T12:59:59.488Z,100812.23
2018-02-08T13:02:26.932Z,100802.72
2018-02-08T13:04:54.428Z,100801.63
2018-02-08T13:07:21.899Z,100806.44
2018-02-08T13:09:49.537Z,100802.83
2018-02-08T13:12:16.985Z,100799.84
2018-02-08T13:14:44.437Z,100806.33
2018-02-08T13:17:11.915Z,100801.12
2018-02-08T13:19:39.367Z,100794.59
2018-02-08T13:22:07.080Z,100790.75
2018-02-08T13:24:34.531Z,100791.69
2018-02-08T13:27:01.981Z,100786.08
2018-02-08T13:29:29.453Z,100789.53
2018-02-08T13:31:57.433Z,100784.52
2018-02-08T13:34:24.910Z,100785.64
2018-02-08T13:36:52.361Z,100781.34
2018-02-08T13:39:25.465Z,100781.71
2018-02-08T13:41:52.921Z,100780.56
2018-02-08T13:44:20.450Z,100783.84
2018-02-08T13:46:47.932Z,100782.41
2018-02-08T13:49:31.266Z,100778.20
2018-02-08T13:55:10.377Z,100792.71
2018-02-08T13:57:38.818Z,100785.05
2018-02-08T14:00:12.324Z,100786.25
2018-02-08T14:02:39.789Z,100787.56
2018-02-08T14:05:07.264Z,100786.26
2018-02-08T14:07:34.974Z,100785.03
2018-02-08T14:10:02.509Z,100785.95
2018-02-08T14:12:29.970Z,100789.73
2018-02-08T14:14:57.433Z,100784.86
2018-02-08T14:17:24.877Z,100787.59
2018-02-08T14:19:52.569Z,100789.40
2018-02-08T14:22:20.072Z,100785.66
2018-02-08T14:24:47.521Z,100787.09
2018-02-08T14:27:14.998Z,100782.66
2018-02-08T14:29:42.446Z,100776.91
2018-02-08T14:32:10.579Z,100781.77
2018-02-08T14:34:38.038Z,100783.05
2018-02-08T14:37:05.543Z,100779.92
2018-02-08T14:39:33.015Z,100780.58
2018-02-08T14:42:00.478Z,100782.03
2018-02-08T14:44:28.205Z,100779.47
2018-02-08T14:46:55.655Z,100776.77
2018-02-08T14:49:23.220Z,100780.64
2018-02-08T14:51:50.693Z,100775.88
2018-02-08T14:54:18.137Z,100779.31
2018-02-08T14:56:45.961Z,100776.78
2018-02-08T14:59:13.501Z,100772.00
2018-02-08T15:01:40.988Z,100772.77
2018-02-08T15:04:08.463Z,100768.38
2018-02-08T15:06:35.909Z,100766.67
2018-02-08T15:09:03.589Z,100775.90
2018-02-08T15:11:33.242Z,100769.75
2018-02-08T15:14:00.958Z,100771.88
2018-02-08T15:16:28.425Z,100772.83
2018-02-08T15:18:55.886Z,100778.44
2018-02-08T15:21:23.500Z,100776.20
2018-02-08T15:23:50.944Z,100776.61
2018-02-08T15:26:18.394Z,100782.22
2018-02-08T15:28:45.861Z,100779.22
2018-02-08T15:31:13.353Z,100778.30
2018-02-08T15:33:40.981Z,100773.00
2018-02-08T15:36:08.430Z,100775.72
2018-02-08T15:38:35.893Z,100772.64
2018-02-08T15:41:03.366Z,100773.27
2018-02-08T15:43:30.814Z,100771.95
2018-02-08T15:45:58.677Z,100785.08
2018-02-08T15:48:26.127Z,100779.23
2018-02-08T15:50:53.605Z,100776.95
2018-02-08T15:53:21.074Z,100774.68
2018-02-08T15:55:48.517Z,100771.59
2018-02-08T15:58:16.920Z,100783.31
2018-02-08T16:00:44.373Z,100784.62
2018-02-08T16:03:11.834Z,100778.60
2018-02-08T16:05:39.322Z,100779.85
2018-02-08T16:08:06.773Z,100781.31
2018-02-08T16:10:34.469Z,100782.84
2018-02-08T16:13:01.915Z,100786.28
2018-02-08T16:15:29.368Z,100787.51
2018-02-08T16:17:56.837Z,100787.73
2018-02-08T16:20:24.310Z,100789.59
2018-02-08T16:22:52.085Z,100790.53
2018-02-08T16:25:19.531Z,100794.76
2018-02-08T16:27:47.016Z,100787.02
2018-02-08T16:30:14.552Z,100793.80
2018-02-08T16:32:41.953Z,100791.82
2018-02-08T16:35:09.531Z,100791.95
2018-02-08T16:37:37.018Z,100788.41
2018-02-08T16:40:04.473Z,100790.98
2018-02-08T16:42:31.937Z,100796.20
2018-02-08T16:44:59.410Z,100794.35
2018-02-08T16:47:27.224Z,100795.48
2018-02-08T16:49:54.669Z,100793.73
2018-02-08T16:52:22.122Z,100790.27
2018-02-08T16:54:49.592Z,100796.77
2018-02-08T16:57:17.037Z,100801.98
2018-02-08T16:59:44.516Z,100797.56
2018-02-08T17:02:12.005Z,100803.66
2018-02-08T17:04:39.453Z,100812.09
2018-02-08T17:07:06.925Z,100810.37
2018-02-08T17:09:34.368Z,100813.42
2018-02-08T17:12:01.834Z,100811.84
2018-02-08T17:14:29.332Z,100803.45
2018-02-08T17:16:56.781Z,100805.06
2018-02-08T17:19:24.226Z,100809.77
2018-02-08T17:21:51.697Z,100817.70
2018-02-08T17:24:19.570Z,100815.98
2018-02-08T17:26:47.030Z,100810.30
2018-02-08T17:29:14.801Z,100813.20
2018-02-08T17:31:42.261Z,100817.66
2018-02-08T17:34:09.744Z,100820.60
2018-02-08T17:36:37.224Z,100821.55
2018-02-08T17:39:04.693Z,100827.16
2018-02-08T17:41:32.147Z,100831.61
2018-02-08T17:43:59.677Z,100833.23
2018-02-08T17:49:01.034Z,100833.77
2018-02-08T17:51:28.532Z,100831.28
2018-02-08T17:53:56.020Z,100834.44
2018-02-08T17:56:23.701Z,100831.56
2018-02-08T17:58:51.168Z,100831.61
2018-02-08T18:01:18.646Z,100834.33
2018-02-08T18:03:46.424Z,100830.55
2018-02-08T18:06:13.916Z,100832.86
2018-02-08T18:08:41.381Z,100837.55
2018-02-08T18:11:08.872Z,100837.58
2018-02-08T18:13:36.357Z,100831.72
2018-02-08T18:16:04.157Z,100831.64
2018-02-08T18:18:31.648Z,100830.24
2018-02-08T18:20:59.101Z,100832.71
2018-02-08T18:23:26.586Z,100829.47
2018-02-08T18:25:54.039Z,100838.91
2018-02-08T18:28:21.524Z,100838.98
2018-02-08T18:30:49.022Z,100841.18
2018-02-08T18:33:16.475Z,100843.78
2018-02-08T18:35:43.949Z,100851.71
2018-02-08T18:38:11.401Z,100850.03
2018-02-08T18:40:39.287Z,100843.64
2018-02-08T18:43:06.741Z,100845.33
2018-02-08T18:45:34.196Z,100845.94
2018-02-08T18:48:01.688Z,100842.08
2018-02-08T18:50:29.137Z,100846.69
2018-02-08T18:52:56.718Z,100844.72
2018-02-08T18:55:24.175Z,100847.22
2018-02-08T18:57:51.623Z,100852.03
2018-02-08T19:00:19.120Z,100857.25
2018-02-08T19:02:46.580Z,100851.88
2018-02-08T19:05:14.090Z,100847.16
2018-02-08T19:07:41.541Z,100850.83
2018-02-08T19:10:09.090Z,100850.89
2018-02-08T19:12:36.628Z,100844.09
2018-02-08T19:15:04.118Z,100843.39
2018-02-08T19:17:32.025Z,100842.06
2018-02-08T19:19:59.503Z,100841.52
2018-02-08T19:22:26.955Z,100844.84
2018-02-08T19:24:54.424Z,100847.21
2018-02-08T19:27:21.891Z,100848.55
2018-02-08T19:29:49.598Z,100854.80
2018-02-08T19:32:17.069Z,100852.23
2018-02-08T19:34:44.525Z,100855.26
2018-02-08T19:37:12.205Z,100856.62
2018-02-08T19:39:39.661Z,100854.41
2018-02-08T19:42:07.555Z,100858.31
2018-02-08T19:44:35.075Z,100855.16
2018-02-08T19:47:02.549Z,100856.66
2018-02-08T19:49:30.160Z,100849.88
2018-02-08T19:51:57.614Z,100842.45
2018-02-08T19:54:25.407Z,100845.09
2018-02-08T19:56:52.917Z,100839.47
2018-02-08T19:59:20.387Z,100838.97
2018-02-08T20:01:47.943Z,100849.75
2018-02-08T20:04:15.429Z,100845.97
2018-02-08T20:06:44.348Z,100844.92
2018-02-08T20:09:12.793Z,100843.81
2018-02-08T20:11:40.287Z,100846.98
2018-02-08T20:14:13.705Z,100842.75
2018-02-08T20:16:41.233Z,100846.10
2018-02-08T20:19:09.032Z,100844.83
2018-02-08T20:21:36.533Z,100847.09
2018-02-08T20:24:04.524Z,100844.27
2018-02-08T20:26:32.210Z,100843.41
2018-02-08T20:28:59.874Z,100841.24
2018-02-08T20:31:28.979Z,100843.62
2018-02-08T20:33:56.474Z,100843.97
2018-02-08T20:36:23.999Z,100842.62
2018-02-08T20:38:51.507Z,100836.91
2018-02-08T20:41:19.005Z,100838.12
2018-02-08T20:43:46.482Z,100840.97
2018-02-08T20:46:13.972Z,100833.73
2018-02-08T20:48:41.847Z,100833.42
2018-02-08T20:51:09.319Z,100828.41
2018-02-08T20:53:37.376Z,100828.77
2018-02-08T20:56:05.318Z,100827.65
2018-02-08T20:58:32.829Z,100829.58
2018-02-08T21:01:00.592Z,100830.66
2018-02-08T21:03:28.185Z,100826.06
2018-02-08T21:05:55.749Z,100830.28
2018-02-08T21:08:23.349Z,100828.27
2018-02-08T21:10:50.819Z,100825.30
2018-02-08T21:13:18.644Z,100832.14
2018-02-08T21:15:46.092Z,100832.33
2018-02-08T21:18:13.610Z,100827.49
2018-02-08T21:20:41.105Z,100835.00
2018-02-08T21:23:08.562Z,100831.83
2018-02-08T21:25:36.243Z,100827.73
2018-02-08T21:28:03.836Z,100822.00
2018-02-08T21:30:31.341Z,100819.06
2018-02-08T21:32:58.814Z,100816.99
2018-02-08T21:35:26.309Z,100818.97
2018-02-08T21:37:53.798Z,100813.77
2018-02-08T21:40:21.245Z,100814.86
2018-02-08T21:42:48.693Z,100814.25
2018-02-08T21:45:16.167Z,100814.90
2018-02-08T21:47:43.618Z,100809.42
2018-02-08T21:50:11.296Z,100813.41
2018-02-08T21:52:38.803Z,100810.39
2018-02-08T21:55:06.285Z,100806.20
2018-02-08T21:57:34.206Z,100810.78
2018-02-08T22:00:01.982Z,100814.61
2018-02-08T22:02:29.606Z,100807.23
2018-02-08T22:04:57.088Z,100812.38
2018-02-08T22:07:24.608Z,100810.91
2018-02-08T22:09:52.410Z,100804.56
2018-02-08T22:12:19.913Z,100805.88
2018-02-08T22:14:47.443Z,100807.19
2018-02-08T22:17:14.913Z,100804.73
2018-02-08T22:19:42.398Z,100806.39
2018-02-08T22:22:09.889Z,100799.86
2018-02-08T22:24:37.383Z,100794.48
2018-02-08T22:27:05.094Z,100798.28
2018-02-08T22:29:32.540Z,100793.33
2018-02-08T22:31:59.989Z,100792.42
2018-02-08T22:34:27.477Z,100790.43
2018-02-08T22:36:54.952Z,100802.16
2018-02-08T22:39:22.689Z,100796.94
2018-02-08T22:41:50.202Z,100804.10
2018-02-08T22:44:17.642Z,100804.52
2018-02-08T22:46:45.113Z,100808.09
2018-02-08T22:49:12.580Z,100805.87
2018-02-08T22:51:40.080Z,100806.19
2018-02-08T22:54:07.529Z,100809.72
2018-02-08T22:56:35.840Z,100799.09
2018-02-08T22:59:03.321Z,100805.55
2018-02-08T23:01:30.775Z,100802.53
2018-02-08T23:03:58.491Z,100793.70
2018-02-08T23:06:25.961Z,100788.11
2018-02-08T23:08:53.413Z,100788.27
2018-02-08T23:11:20.899Z,100787.69
2018-02-08T23:13:48.361Z,100785.38
2018-02-08T23:16:15.976Z,100793.80
2018-02-08T23:18:43.433Z,100786.38
2018-02-08T23:21:10.889Z,100795.17
2018-02-08T23:23:38.365Z,100796.86
2018-02-08T23:26:05.819Z,100788.00
2018-02-08T23:28:33.314Z,100797.53
2018-02-08T23:31:00.777Z,100797.22
2018-02-08T23:33:28.247Z,100796.04
2018-02-08T23:35:55.764Z,100795.38
2018-02-08T23:38:23.229Z,100793.28
2018-02-08T23:40:50.941Z,100794.64
2018-02-08T23:43:18.394Z,100796.02
2018-02-08T23:45:45.852Z,100795.41
2018-02-08T23:48:13.320Z,100786.51
2018-02-08T23:50:40.777Z,100791.20
2018-02-08T23:53:08.445Z,100790.95
2018-02-08T23:55:35.896Z,100792.83
2018-02-08T23:58:03.363Z,100787.67
